Airfield :
LOGIN :

Register | Disclaimer

   EN    FR    IT 

 










Legend :    VFR   Marginal VFR   IFR   Intensive IFR   Very Intensive IFR
Visi :
Ceiling :
>= 8 km
>= 3000ft
5 to 8 km
1000 to 3000 ft
1500m to 5 km
500 to 1000 ft
800 to 1500m
200 to 500 ft
< 800m
< 200 ft
Symbols :   Thunderstorms  Fog  Heavy snow  Heavy precipitations  Wind > 20 kt
SIGMETs :     Misc.  Thunderstorms  Icing  Turbulence  Mountain Waves  Volcanic Ashes






- Airport Elevation : 600 ft
- IATA code : VIE


LOWW - Vienna Schwechat

CURRENT METAR :
  • 080850Z 15008KT 9999 FEW024 SCT034 BKN038 03/01 Q1012 NOSIG

EXPIRED METARs :
  • 080820Z 15010KT 9999 FEW028 SCT048 03/01 Q1012 NOSIG
  • 080750Z 15009KT 9999 FEW030 SCT032 BKN050 03/01 Q1012 NOSIG
  • 080720Z 14009KT 9999 FEW026 BKN028 03/01 Q1012 NOSIG
  • 080650Z 14009KT 9999 FEW026 SCT030 BKN034 03/01 Q1012 NOSIG
  • 080620Z 17008KT 9999 FEW032 SCT044 BKN048 03/01 Q1012 NOSIG

TAF TAF LOWW
Valid from the 08 at 09:00 until the 09 at 15:00 UTC


080815Z 0809/0915 15008KT 9999 BKN040 TX04/0812Z TN01/0821Z
TEMPO 0810/0820 BKN010
BECMG 0816/0818 12004KT
BECMG 0820/0822 BKN008
TEMPO 0822/0907 0400 FG VV001
BECMG 0907/0909 13009KT 2500
TEMPO 0909/0915 RA



MET'MAP, your aeronautical weather chart ! - Copyright ORBIFLY December 2007 - Disclaimer

ORBIFLY MET'MAP TEAM :

Programming & Development : Alexandra Zaïnal
Original concept : Baudouin d'Aumeries
Technical & hardware support : Manuel Goepfert
Assistance : Marc-Olivier Méhu




SOURCES & CREDITS :

   NOAA